Time;durP1;ratioP1;P1;durP2;ratioP2;P2;SDS_P1;SDS_P2;PMS_P1;PMS_P2;Temp;Humidity;BMP_temperature;BMP_pressure;BME280_temperature;BME280_humidity;BME280_pressure;Samples;Min_cycle;Max_cycle;Signal;HPM_P1;HPM_P2
2021/03/01 00:01:53;;;;;;;15.90;9.40;;;8.60;49.60;;;;;;5052928;28;20029;-74
2021/03/01 00:04:19;;;;;;;15.17;8.90;;;8.60;49.70;;;;;;5053560;28;20027;-73
2021/03/01 00:06:45;;;;;;;15.00;9.30;;;8.60;50.20;;;;;;5052547;28;20032;-74
2021/03/01 00:09:10;;;;;;;19.00;9.87;;;8.50;50.10;;;;;;5052662;28;20032;-74
2021/03/01 00:11:36;;;;;;;14.53;8.97;;;8.50;50.50;;;;;;5052338;28;20079;-74
2021/03/01 00:14:02;;;;;;;22.30;8.93;;;8.50;50.20;;;;;;5052499;28;20071;-74
2021/03/01 00:16:28;;;;;;;15.00;8.73;;;8.50;50.40;;;;;;5052335;28;20021;-74
2021/03/01 00:18:54;;;;;;;17.87;9.33;;;8.40;50.70;;;;;;5052591;28;20190;-74
2021/03/01 00:21:20;;;;;;;19.23;10.67;;;8.30;51.30;;;;;;5052245;28;20473;-73
2021/03/01 00:23:47;;;;;;;19.23;10.60;;;8.30;50.90;;;;;;5052572;28;20021;-73
2021/03/01 00:26:13;;;;;;;16.53;10.20;;;8.20;50.60;;;;;;5052609;28;20031;-74
2021/03/01 00:28:39;;;;;;;16.27;9.77;;;8.20;50.50;;;;;;5052256;28;20072;-74
2021/03/01 00:31:05;;;;;;;21.80;10.80;;;8.20;50.40;;;;;;5052013;28;20061;-74
2021/03/01 00:33:31;;;;;;;20.67;10.10;;;8.10;50.30;;;;;;5051722;28;20059;-74
2021/03/01 00:35:56;;;;;;;14.20;9.33;;;8.10;50.40;;;;;;5052011;28;20025;-74
2021/03/01 00:38:22;;;;;;;19.57;10.23;;;8.00;50.50;;;;;;5052013;28;20070;-74
2021/03/01 00:40:48;;;;;;;20.10;9.03;;;;;;;;;;5052234;28;20029;-74
2021/03/01 00:43:13;;;;;;;20.03;9.43;;;7.90;51.10;;;;;;5051763;28;20029;-74
2021/03/01 00:45:39;;;;;;;17.63;9.63;;;7.80;51.70;;;;;;5051355;28;20025;-74
2021/03/01 00:48:05;;;;;;;23.17;9.50;;;7.90;52.10;;;;;;5051604;28;20029;-74
2021/03/01 00:50:31;;;;;;;22.57;10.43;;;7.90;52.40;;;;;;5052244;28;20025;-74
2021/03/01 00:52:56;;;;;;;16.37;9.47;;;7.80;52.20;;;;;;5051578;28;20086;-74
2021/03/01 00:55:22;;;;;;;19.90;10.40;;;7.80;52.30;;;;;;5052351;28;20358;-74
2021/03/01 00:57:48;;;;;;;19.70;9.70;;;7.80;51.90;;;;;;5051730;28;20029;-73
2021/03/01 01:00:16;;;;;;;17.97;10.23;;;7.80;52.40;;;;;;5050230;28;20035;-73
2021/03/01 01:02:42;;;;;;;14.57;9.27;;;7.80;52.40;;;;;;5051615;28;20079;-74
2021/03/01 01:05:08;;;;;;;16.90;9.70;;;7.80;52.60;;;;;;5051255;28;20033;-74
2021/03/01 01:07:35;;;;;;;18.40;9.83;;;7.80;52.70;;;;;;5051746;28;20108;-73
2021/03/01 01:10:01;;;;;;;18.37;10.63;;;7.80;52.80;;;;;;5051193;28;20466;-74
2021/03/01 01:12:27;;;;;;;19.13;9.47;;;7.80;52.80;;;;;;5051458;28;20037;-74
2021/03/01 01:14:52;;;;;;;16.50;9.67;;;7.70;52.80;;;;;;5051586;28;20374;-74
2021/03/01 01:17:18;;;;;;;16.33;8.80;;;7.70;53.10;;;;;;5051500;28;20090;-74
2021/03/01 01:19:44;;;;;;;18.47;10.00;;;7.60;53.20;;;;;;5051361;28;20074;-74
2021/03/01 01:22:10;;;;;;;18.47;9.90;;;7.70;53.30;;;;;;5051549;28;20116;-74
2021/03/01 01:24:35;;;;;;;14.43;9.00;;;7.60;52.50;;;;;;5051600;28;20096;-74
2021/03/01 01:27:01;;;;;;;22.63;10.00;;;7.60;53.10;;;;;;5051302;28;20463;-74
2021/03/01 01:29:27;;;;;;;16.23;9.87;;;7.60;53.40;;;;;;5051276;28;20392;-74
2021/03/01 01:31:52;;;;;;;17.90;9.97;;;7.50;53.40;;;;;;5051728;28;20047;-74
2021/03/01 01:34:18;;;;;;;25.97;12.03;;;7.50;53.00;;;;;;5051505;28;20025;-74
2021/03/01 01:36:43;;;;;;;19.93;10.83;;;7.50;52.90;;;;;;5051187;28;20037;-74
2021/03/01 01:39:09;;;;;;;18.10;10.20;;;7.50;52.90;;;;;;5051175;28;20057;-74
2021/03/01 01:41:35;;;;;;;15.83;9.67;;;7.40;53.40;;;;;;5051248;28;20071;-74
2021/03/01 01:44:00;;;;;;;17.13;9.33;;;7.40;53.40;;;;;;5050958;28;20029;-74
2021/03/01 01:46:26;;;;;;;20.37;9.70;;;7.40;53.30;;;;;;5051213;28;20029;-74
2021/03/01 01:48:52;;;;;;;13.50;8.33;;;7.30;52.80;;;;;;5051210;28;20037;-74
2021/03/01 01:51:17;;;;;;;15.07;8.23;;;7.30;52.70;;;;;;5051169;28;20452;-73
2021/03/01 01:53:44;;;;;;;15.03;7.97;;;7.30;52.90;;;;;;5050788;28;20418;-73
2021/03/01 01:56:09;;;;;;;14.33;8.23;;;7.20;53.10;;;;;;5050961;28;20025;-74
2021/03/01 01:58:36;;;;;;;16.50;7.70;;;7.20;53.30;;;;;;5053273;28;20456;-74
2021/03/01 02:01:04;;;;;;;12.97;6.30;;;7.20;53.30;;;;;;5051519;28;20072;-73
2021/03/01 02:03:36;;;;;;;12.20;6.80;;;7.20;53.10;;;;;;5051931;28;20025;-74
2021/03/01 02:06:16;;;;;;;16.83;6.80;;;7.10;53.00;;;;;;5054975;28;20424;-74
2021/03/01 02:08:55;;;;;;;9.80;5.90;;;7.00;52.80;;;;;;5054882;28;20462;-74
2021/03/01 02:11:54;;;;;;;12.13;5.83;;;6.90;53.60;;;;;;5053762;28;20137;-73
2021/03/01 02:14:32;;;;;;;15.80;8.07;;;7.00;53.70;;;;;;5054365;28;20043;-74
2021/03/01 02:16:58;;;;;;;13.03;7.43;;;7.00;53.40;;;;;;5054527;28;20025;-73
2021/03/01 02:19:25;;;;;;;9.93;6.43;;;7.00;53.60;;;;;;5054523;28;20024;-73
2021/03/01 02:21:51;;;;;;;16.87;8.90;;;6.90;53.50;;;;;;5054711;28;20028;-73
2021/03/01 02:24:22;;;;;;;23.40;9.97;;;6.90;53.30;;;;;;5054861;28;20021;-74
2021/03/01 02:26:51;;;;;;;20.83;10.33;;;6.90;53.40;;;;;;5053339;28;20025;-74
2021/03/01 02:29:20;;;;;;;24.83;11.10;;;6.90;53.70;;;;;;5054090;28;20354;-73
2021/03/01 02:31:47;;;;;;;22.30;10.60;;;6.90;53.70;;;;;;5054182;28;20036;-74
2021/03/01 02:34:16;;;;;;;23.43;10.50;;;6.80;54.20;;;;;;5053105;28;20021;-74
2021/03/01 02:36:54;;;;;;;22.03;12.00;;;6.80;54.40;;;;;;5054039;28;20068;-74
2021/03/01 02:39:22;;;;;;;29.23;9.60;;;6.80;54.30;;;;;;5054284;28;20029;-74
2021/03/01 02:41:50;;;;;;;19.53;9.57;;;6.80;54.10;;;;;;5053174;28;20120;-74
2021/03/01 02:44:18;;;;;;;19.40;10.13;;;6.80;53.90;;;;;;5053780;28;20025;-73
2021/03/01 02:46:45;;;;;;;24.37;10.37;;;6.70;54.00;;;;;;5053708;28;20029;-75
2021/03/01 02:49:12;;;;;;;23.73;10.70;;;6.60;54.60;;;;;;5054293;28;20036;-73
2021/03/01 02:51:41;;;;;;;23.53;10.63;;;6.60;55.00;;;;;;5054122;28;20033;-74
2021/03/01 02:54:07;;;;;;;21.03;11.17;;;6.50;55.10;;;;;;5053870;28;20044;-73
2021/03/01 02:56:33;;;;;;;20.93;11.23;;;6.60;55.30;;;;;;5053840;28;20325;-73
2021/03/01 02:59:01;;;;;;;21.20;10.93;;;6.50;55.40;;;;;;5053451;28;20454;-73
2021/03/01 03:01:28;;;;;;;19.80;10.87;;;6.50;55.30;;;;;;5053929;28;20650;-73
2021/03/01 03:03:54;;;;;;;20.37;10.67;;;6.50;55.40;;;;;;5053272;28;20441;-73
2021/03/01 03:06:27;;;;;;;21.17;11.13;;;6.50;55.00;;;;;;5053812;28;20036;-73
2021/03/01 03:08:54;;;;;;;23.30;10.43;;;6.50;55.20;;;;;;5053702;28;20104;-73
2021/03/01 03:11:22;;;;;;;23.53;11.43;;;6.50;55.10;;;;;;5053659;28;20441;-73
2021/03/01 03:13:49;;;;;;;18.40;10.33;;;6.50;55.00;;;;;;5054315;28;20052;-73
2021/03/01 03:16:17;;;;;;;19.90;10.67;;;6.60;54.80;;;;;;5054315;28;20475;-73
2021/03/01 03:18:44;;;;;;;16.20;9.33;;;6.50;54.70;;;;;;5053386;28;20025;-74
2021/03/01 03:21:12;;;;;;;21.27;9.77;;;6.50;54.70;;;;;;5054528;28;20029;-73
2021/03/01 03:23:37;;;;;;;17.23;10.37;;;6.50;55.60;;;;;;5054524;28;20031;-74
2021/03/01 03:26:03;;;;;;;17.97;9.43;;;6.40;55.30;;;;;;5053917;28;20025;-74
2021/03/01 03:28:29;;;;;;;15.93;8.33;;;6.50;55.20;;;;;;5054186;28;20377;-73
2021/03/01 03:30:54;;;;;;;17.23;9.27;;;6.40;55.20;;;;;;5053263;28;20024;-73
2021/03/01 03:33:20;;;;;;;18.43;8.53;;;6.40;55.10;;;;;;5054541;28;20029;-73
2021/03/01 03:35:46;;;;;;;13.60;7.60;;;6.40;55.20;;;;;;5054322;28;20025;-73
2021/03/01 03:38:22;;;;;;;14.30;8.03;;;6.30;55.20;;;;;;5054070;28;20144;-74
2021/03/01 03:40:53;;;;;;;13.50;7.13;;;6.30;55.60;;;;;;5053326;28;20074;-73
2021/03/01 03:43:20;;;;;;;13.00;7.03;;;6.30;56.00;;;;;;5054913;28;20021;-73
2021/03/01 03:45:50;;;;;;;12.47;7.10;;;6.30;56.00;;;;;;5054107;28;20029;-74
2021/03/01 03:48:20;;;;;;;12.53;6.23;;;6.30;55.80;;;;;;5053729;28;20377;-73
2021/03/01 03:50:55;;;;;;;12.77;6.63;;;6.20;55.90;;;;;;5053163;28;20123;-73
2021/03/01 03:53:25;;;;;;;9.80;5.40;;;6.20;56.10;;;;;;5052794;28;20413;-73
2021/03/01 03:55:53;;;;;;;8.67;5.47;;;6.10;56.20;;;;;;5053854;28;20555;-73
2021/03/01 03:58:23;;;;;;;7.20;4.90;;;6.10;56.20;;;;;;5052815;28;20020;-74
2021/03/01 04:00:52;;;;;;;18.33;5.90;;;6.10;56.50;;;;;;5052533;28;20448;-73
2021/03/01 04:03:22;;;;;;;9.73;5.03;;;6.10;56.60;;;;;;5052924;28;20025;-74
2021/03/01 04:05:50;;;;;;;9.20;5.30;;;6.10;57.40;;;;;;5052960;28;20017;-74
2021/03/01 04:08:18;;;;;;;7.50;5.20;;;6.10;56.60;;;;;;5052910;28;20060;-74
2021/03/01 04:10:55;;;;;;;9.73;5.23;;;6.00;56.40;;;;;;5052639;28;20394;-74
2021/03/01 04:13:24;;;;;;;11.57;5.40;;;6.00;56.20;;;;;;5052666;28;20440;-74
2021/03/01 04:15:50;;;;;;;13.90;5.83;;;6.00;56.20;;;;;;5052626;28;20025;-74
2021/03/01 04:18:32;;;;;;;15.80;6.03;;;6.00;55.50;;;;;;5052550;28;20025;-74
2021/03/01 04:21:02;;;;;;;17.27;6.70;;;5.90;55.70;;;;;;5051482;28;20470;-74
2021/03/01 04:23:30;;;;;;;15.80;6.90;;;5.90;55.90;;;;;;5052514;28;20029;-74
2021/03/01 04:25:58;;;;;;;13.70;8.00;;;5.90;56.00;;;;;;5052144;28;20025;-74
2021/03/01 04:28:24;;;;;;;22.03;7.77;;;5.90;55.90;;;;;;5052240;28;20021;-74
2021/03/01 04:30:51;;;;;;;15.77;8.10;;;5.90;55.80;;;;;;5052527;28;20021;-73
2021/03/01 04:33:18;;;;;;;16.23;8.37;;;5.80;56.00;;;;;;5052270;28;20070;-74
2021/03/01 04:35:47;;;;;;;14.90;7.50;;;5.80;56.00;;;;;;5052636;28;20051;-74
2021/03/01 04:38:13;;;;;;;13.40;6.70;;;5.70;56.10;;;;;;5052042;28;20477;-74
2021/03/01 04:40:39;;;;;;;12.90;6.83;;;5.70;56.50;;;;;;5052485;28;20025;-74
2021/03/01 04:43:10;;;;;;;13.00;6.77;;;5.70;56.60;;;;;;5051959;28;20032;-75
2021/03/01 04:45:40;;;;;;;12.13;6.13;;;5.60;56.70;;;;;;5050553;28;20115;-74
2021/03/01 04:48:07;;;;;;;9.10;5.80;;;5.60;56.70;;;;;;5051566;28;20086;-74
2021/03/01 04:50:33;;;;;;;11.67;6.00;;;5.60;56.80;;;;;;5052112;28;20025;-74
2021/03/01 04:52:59;;;;;;;10.80;5.93;;;5.50;56.90;;;;;;5051519;28;20040;-74
2021/03/01 04:55:26;;;;;;;13.33;5.90;;;5.50;57.00;;;;;;5052133;28;20029;-74
2021/03/01 04:57:54;;;;;;;10.47;6.07;;;5.60;57.40;;;;;;5052451;28;20032;-74
2021/03/01 05:00:20;;;;;;;8.17;5.70;;;5.60;57.50;;;;;;5051521;28;20017;-74
2021/03/01 05:02:47;;;;;;;11.83;5.87;;;5.60;57.40;;;;;;5051945;28;20047;-74
2021/03/01 05:05:13;;;;;;;13.33;5.63;;;5.60;57.50;;;;;;5051380;28;20013;-75
2021/03/01 05:07:39;;;;;;;12.67;6.10;;;5.50;57.50;;;;;;5051463;28;20119;-74
2021/03/01 05:10:08;;;;;;;11.03;5.57;;;5.60;57.40;;;;;;5051216;28;20017;-74
2021/03/01 05:12:33;;;;;;;8.83;5.40;;;5.60;57.70;;;;;;5051462;28;20033;-75
2021/03/01 05:14:59;;;;;;;9.83;6.13;;;5.60;57.60;;;;;;5051468;28;20017;-74
2021/03/01 05:17:25;;;;;;;9.23;5.63;;;5.60;57.60;;;;;;5051832;28;20032;-74
2021/03/01 05:19:50;;;;;;;14.33;5.87;;;5.60;57.70;;;;;;5051678;28;20027;-74
2021/03/01 05:22:16;;;;;;;14.10;5.53;;;5.60;57.40;;;;;;5051602;28;20021;-74
2021/03/01 05:24:42;;;;;;;8.93;5.57;;;5.60;56.90;;;;;;5051467;28;20061;-74
2021/03/01 05:27:08;;;;;;;10.20;5.50;;;5.50;57.10;;;;;;5051264;28;20083;-74
2021/03/01 05:29:34;;;;;;;10.23;5.40;;;5.50;57.10;;;;;;5051288;28;20373;-74
2021/03/01 05:32:00;;;;;;;21.63;6.17;;;5.40;57.60;;;;;;5050075;28;20037;-75
2021/03/01 05:34:26;;;;;;;22.17;6.13;;;5.40;57.30;;;;;;5051458;28;20025;-74
2021/03/01 05:36:51;;;;;;;20.60;6.37;;;5.40;57.10;;;;;;5051093;28;20078;-75
2021/03/01 05:39:17;;;;;;;17.80;6.03;;;5.40;57.20;;;;;;5051328;28;20485;-75
2021/03/01 05:41:46;;;;;;;12.70;6.00;;;5.40;57.20;;;;;;5051564;28;20389;-75
2021/03/01 05:44:13;;;;;;;12.80;5.83;;;5.40;57.20;;;;;;5050048;28;20029;-75
2021/03/01 05:46:42;;;;;;;19.17;6.30;;;5.40;57.10;;;;;;5050943;28;20033;-75
2021/03/01 05:49:08;;;;;;;19.43;6.87;;;5.40;56.90;;;;;;5051651;28;20025;-74
2021/03/01 05:51:37;;;;;;;17.17;6.50;;;5.40;57.10;;;;;;5050830;28;20021;-75
2021/03/01 05:54:05;;;;;;;12.53;6.27;;;5.30;57.10;;;;;;5050879;28;20481;-75
2021/03/01 05:56:32;;;;;;;19.73;6.80;;;5.20;57.20;;;;;;5050614;28;20100;-75
2021/03/01 05:58:58;;;;;;;25.33;7.67;;;5.20;57.50;;;;;;5050820;28;20108;-75
2021/03/01 06:01:26;;;;;;;31.27;7.27;;;5.10;57.40;;;;;;5050717;28;20039;-75
2021/03/01 06:03:51;;;;;;;27.53;6.93;;;5.20;57.80;;;;;;5051161;28;20453;-75
2021/03/01 06:06:17;;;;;;;27.20;6.80;;;5.10;57.90;;;;;;5050804;28;20090;-75
2021/03/01 06:08:43;;;;;;;27.97;7.57;;;5.10;57.90;;;;;;5052492;28;20032;-72
2021/03/01 06:11:09;;;;;;;18.83;6.70;;;5.10;58.00;;;;;;5051474;28;20448;-74
2021/03/01 06:13:35;;;;;;;25.23;6.70;;;5.00;58.10;;;;;;5050820;28;20029;-74
2021/03/01 06:16:03;;;;;;;23.57;6.77;;;5.00;58.10;;;;;;5051024;28;20021;-75
2021/03/01 06:18:29;;;;;;;24.57;8.10;;;5.00;58.20;;;;;;5051155;28;20550;-74
2021/03/01 06:21:09;;;;;;;30.83;10.10;;;4.90;58.40;;;;;;5052415;28;20500;-74
2021/03/01 06:23:37;;;;;;;27.17;10.27;;;5.00;58.60;;;;;;5050907;28;20051;-75
2021/03/01 06:26:32;;;;;;;19.00;8.83;;;5.00;59.30;;;;;;5050978;28;20024;-74
2021/03/01 06:29:04;;;;;;;29.37;8.83;;;5.00;58.90;;;;;;5050562;28;20079;-74
2021/03/01 06:31:39;;;;;;;34.10;9.83;;;5.10;58.90;;;;;;5050517;28;20029;-72
2021/03/01 06:34:25;;;;;;;35.43;9.83;;;5.10;58.70;;;;;;5051304;28;20420;-74
2021/03/01 06:36:54;;;;;;;35.80;10.27;;;5.10;59.00;;;;;;5050482;28;20032;-74
2021/03/01 06:39:31;;;;;;;28.40;10.17;;;5.20;58.60;;;;;;5051016;28;20029;-73
2021/03/01 06:41:56;;;;;;;32.13;10.33;;;5.20;58.80;;;;;;5065961;28;20392;-74
2021/03/01 06:44:23;;;;;;;37.23;10.17;;;5.20;58.90;;;;;;5053951;28;20021;-73
2021/03/01 06:46:50;;;;;;;32.77;9.67;;;5.20;58.90;;;;;;5054379;28;20059;-73
2021/03/01 06:49:17;;;;;;;30.43;9.50;;;5.30;59.20;;;;;;5054760;28;20082;-73
2021/03/01 06:51:43;;;;;;;31.53;10.70;;;5.30;59.30;;;;;;5054107;28;20112;-74
2021/03/01 06:54:09;;;;;;;34.47;10.60;;;5.40;59.40;;;;;;5054112;28;20132;-74
2021/03/01 06:56:44;;;;;;;41.37;12.37;;;5.50;59.50;;;;;;5069742;28;20052;-74
2021/03/01 06:59:17;;;;;;;41.13;12.93;;;5.50;58.80;;;;;;5054350;28;20507;-71
2021/03/01 07:01:48;;;;;;;29.80;13.40;;;5.60;58.80;;;;;;5054054;28;20040;-74
2021/03/01 07:04:28;;;;;;;34.93;13.33;;;5.70;58.60;;;;;;5053943;28;20389;-75
2021/03/01 07:06:55;;;;;;;38.23;12.13;;;5.70;58.70;;;;;;5054147;28;20029;-75
2021/03/01 07:09:27;;;;;;;29.63;12.43;;;5.80;58.90;;;;;;5054702;28;20028;-74
2021/03/01 07:11:54;;;;;;;31.83;12.67;;;5.90;58.30;;;;;;5054331;28;20091;-74
2021/03/01 07:14:26;;;;;;;49.37;14.03;;;6.00;57.50;;;;;;5054609;28;20485;-74
2021/03/01 07:16:57;;;;;;;32.08;13.43;;;6.00;57.40;;;;;;5055232;28;20043;-74
2021/03/01 07:19:30;;;;;;;44.20;13.47;;;6.00;57.90;;;;;;5055525;28;20020;-74
2021/03/01 07:22:05;;;;;;;32.50;13.30;;;6.10;58.60;;;;;;5055761;28;20481;-73
2021/03/01 07:24:31;;;;;;;45.50;13.37;;;6.20;59.10;;;;;;5055511;28;20021;-73
2021/03/01 07:26:59;;;;;;;34.43;11.70;;;6.30;59.20;;;;;;5055319;28;20713;-73
2021/03/01 07:29:29;;;;;;;21.53;11.03;;;6.30;59.20;;;;;;5055232;28;20025;-73
2021/03/01 07:32:03;;;;;;;28.37;10.87;;;6.50;59.30;;;;;;5055437;28;20033;-73
2021/03/01 07:34:30;;;;;;;22.20;10.23;;;6.50;59.10;;;;;;5056481;28;20385;-73
2021/03/01 07:36:58;;;;;;;18.87;10.37;;;6.60;58.90;;;;;;5054574;28;20063;-73
2021/03/01 07:39:25;;;;;;;24.07;9.87;;;6.80;58.70;;;;;;5054932;28;20359;-73
2021/03/01 07:41:52;;;;;;;21.07;10.47;;;6.90;58.30;;;;;;5054958;28;20529;-76
2021/03/01 07:44:29;;;;;;;20.70;10.10;;;6.90;58.00;;;;;;5054103;28;20036;-74
2021/03/01 07:46:57;;;;;;;20.60;9.97;;;7.10;57.90;;;;;;5053716;28;20108;-73
2021/03/01 07:49:46;;;;;;;23.23;11.13;;;7.10;57.60;;;;;;5054804;28;20032;-72
2021/03/01 07:52:21;;;;;;;22.93;9.77;;;7.20;57.30;;;;;;5054802;28;20039;-72
2021/03/01 07:54:57;;;;;;;32.70;10.07;;;7.30;57.30;;;;;;5053656;28;20053;-72
2021/03/01 07:57:25;;;;;;;44.53;10.37;;;7.40;57.50;;;;;;5054750;28;20432;-72
2021/03/01 07:59:51;;;;;;;36.63;10.37;;;7.50;57.60;;;;;;5054876;28;20029;-72
2021/03/01 08:02:23;;;;;;;24.63;11.23;;;7.60;57.80;;;;;;5054713;28;20021;-72
2021/03/01 08:04:49;;;;;;;26.67;11.27;;;7.70;57.90;;;;;;5054687;28;20033;-72
2021/03/01 08:07:16;;;;;;;24.93;10.63;;;7.90;57.90;;;;;;5054529;28;20104;-72
2021/03/01 08:09:54;;;;;;;28.83;11.50;;;8.00;57.40;;;;;;5054770;28;20021;-72
2021/03/01 08:12:28;;;;;;;36.13;11.57;;;8.10;56.40;;;;;;5054461;28;20033;-72
2021/03/01 08:14:55;;;;;;;31.43;10.03;;;8.20;56.30;;;;;;5054677;28;20025;-72
2021/03/01 08:17:28;;;;;;;46.10;10.37;;;8.30;56.40;;;;;;5054316;28;20112;-72
2021/03/01 08:19:56;;;;;;;26.60;10.00;;;8.40;56.70;;;;;;5054381;28;20484;-72
2021/03/01 08:22:22;;;;;;;27.77;9.87;;;8.50;56.60;;;;;;5053344;28;20377;-72
2021/03/01 08:24:49;;;;;;;23.43;9.67;;;8.60;55.80;;;;;;5054785;28;20032;-72
2021/03/01 08:27:27;;;;;;;23.47;8.63;;;8.70;55.70;;;;;;5054549;28;20017;-72
2021/03/01 08:30:24;;;;;;;14.73;8.57;;;8.80;56.40;;;;;;5054149;28;20033;-72
2021/03/01 08:33:08;;;;;;;20.60;8.43;;;8.90;56.50;;;;;;5054097;28;20119;-72
2021/03/01 08:35:46;;;;;;;19.23;7.87;;;9.00;56.00;;;;;;5054199;28;20047;-72
2021/03/01 08:38:14;;;;;;;36.93;9.97;;;9.10;55.60;;;;;;5054104;28;20021;-73
2021/03/01 08:40:52;;;;;;;18.20;8.00;;;9.20;55.30;;;;;;5054208;28;20056;-72
2021/03/01 08:43:41;;;;;;;17.13;8.17;;;9.30;55.40;;;;;;5054030;28;20107;-73
2021/03/01 08:46:16;;;;;;;15.20;7.97;;;9.40;55.40;;;;;;5054139;28;20021;-72
2021/03/01 08:48:47;;;;;;;21.27;7.83;;;9.50;55.20;;;;;;5053856;28;20388;-72
2021/03/01 08:51:14;;;;;;;14.00;7.50;;;9.60;55.60;;;;;;5053855;28;20028;-72
2021/03/01 08:53:40;;;;;;;15.63;7.47;;;9.70;54.70;;;;;;5053614;28;20128;-72
2021/03/01 08:56:06;;;;;;;16.63;7.43;;;9.80;54.50;;;;;;5053845;28;20104;-72
2021/03/01 08:58:37;;;;;;;17.60;8.93;;;9.90;54.60;;;;;;5053783;28;20090;-72
2021/03/01 09:01:06;;;;;;;16.10;9.10;;;10.00;54.30;;;;;;5054028;28;20025;-72
2021/03/01 09:03:33;;;;;;;16.10;7.67;;;10.10;53.80;;;;;;5054018;28;20060;-73
2021/03/01 09:06:03;;;;;;;14.43;7.20;;;10.20;53.40;;;;;;5052372;28;20388;-72
2021/03/01 09:08:35;;;;;;;18.50;7.30;;;10.30;52.70;;;;;;5053661;28;20036;-72
2021/03/01 09:11:06;;;;;;;12.63;5.85;;;10.40;52.50;;;;;;5053655;28;20021;-72
2021/03/01 09:13:36;;;;;;;9.50;4.90;;;10.50;52.10;;;;;;5052510;28;20029;-75
2021/03/01 09:16:10;;;;;;;9.77;4.90;;;10.70;50.80;;;;;;5053274;28;20440;-72
2021/03/01 09:18:37;;;;;;;8.43;3.70;;;10.70;49.90;;;;;;5053361;28;20489;-72
2021/03/01 09:21:05;;;;;;;9.37;4.33;;;10.90;49.20;;;;;;5052231;28;20473;-73
2021/03/01 09:23:38;;;;;;;6.67;3.63;;;11.00;48.50;;;;;;5053483;28;20021;-73
2021/03/01 09:26:05;;;;;;;6.73;3.63;;;11.10;48.00;;;;;;5053383;28;20025;-73
2021/03/01 09:28:34;;;;;;;6.73;3.83;;;11.20;47.80;;;;;;5053084;28;20436;-73
2021/03/01 09:31:02;;;;;;;8.38;3.60;;;11.30;46.80;;;;;;5053074;28;20056;-72
2021/03/01 09:33:29;;;;;;;19.67;6.65;;;11.40;46.30;;;;;;5053347;28;20036;-73
2021/03/01 09:35:55;;;;;;;12.13;5.28;;;11.50;46.50;;;;;;5053043;28;20028;-73
2021/03/01 09:38:20;;;;;;;11.57;5.10;;;11.60;46.80;;;;;;5053011;28;20032;-73
2021/03/01 09:40:46;;;;;;;15.10;6.30;;;11.70;46.50;;;;;;5053162;28;20489;-72
2021/03/01 09:43:12;;;;;;;18.85;6.20;;;11.80;44.30;;;;;;5053008;28;20028;-73
2021/03/01 09:45:38;;;;;;;9.73;4.20;;;11.90;42.80;;;;;;5053333;28;20111;-72
2021/03/01 09:48:05;;;;;;;9.35;4.22;;;12.00;42.70;;;;;;5053032;28;20021;-73
2021/03/01 09:50:33;;;;;;;54.08;40.08;;;12.10;43.00;;;;;;5053099;28;20029;-73
2021/03/01 09:52:59;;;;;;;9.35;4.03;;;12.30;42.20;;;;;;5052715;28;20033;-73
2021/03/01 09:55:25;;;;;;;9.93;3.60;;;12.40;40.80;;;;;;5053128;28;20021;-74
2021/03/01 09:57:51;;;;;;;9.35;3.10;;;12.40;40.40;;;;;;5053236;28;20139;-73
2021/03/01 10:00:25;;;;;;;6.95;3.03;;;12.60;39.90;;;;;;5053078;28;20424;-73
2021/03/01 10:03:03;;;;;;;5.28;3.30;;;12.60;39.70;;;;;;5052780;28;20489;-73
2021/03/01 10:05:33;;;;;;;7.68;3.13;;;12.80;39.80;;;;;;5052943;28;20052;-74
2021/03/01 10:08:06;;;;;;;6.28;3.13;;;12.80;38.40;;;;;;5052881;28;20539;-74
2021/03/01 10:10:40;;;;;;;6.40;3.05;;;12.90;39.20;;;;;;5051741;28;20419;-74
2021/03/01 10:13:08;;;;;;;6.10;3.22;;;13.10;38.10;;;;;;5052850;28;20102;-73
2021/03/01 10:15:44;;;;;;;5.53;3.05;;;13.10;37.80;;;;;;5052859;28;20021;-74
2021/03/01 10:18:12;;;;;;;5.28;3.08;;;13.20;38.10;;;;;;5054035;28;20110;-73
2021/03/01 10:20:57;;;;;;;7.05;3.55;;;13.40;38.80;;;;;;5056955;28;20057;-73
2021/03/01 10:23:30;;;;;;;5.90;3.35;;;13.50;37.60;;;;;;5056875;28;20014;-74
2021/03/01 10:26:15;;;;;;;6.50;3.13;;;13.60;37.80;;;;;;5056657;28;20098;-74
2021/03/01 10:28:51;;;;;;;8.90;3.10;;;13.70;36.70;;;;;;5056393;28;20504;-73
2021/03/01 10:31:18;;;;;;;6.45;3.30;;;13.80;37.20;;;;;;5056384;28;20089;-74
2021/03/01 10:34:03;;;;;;;4.25;2.92;;;14.00;38.50;;;;;;5056638;28;20477;-74
2021/03/01 10:36:51;;;;;;;11.02;3.00;;;14.10;38.30;;;;;;5056548;28;20025;-74
2021/03/01 10:39:37;;;;;;;5.82;2.70;;;14.30;38.00;;;;;;5056261;28;20102;-73
2021/03/01 10:42:11;;;;;;;5.30;2.60;;;14.40;38.30;;;;;;5056362;28;20489;-74
2021/03/01 10:45:01;;;;;;;3.55;2.17;;;14.60;37.50;;;;;;5056562;28;20032;-74
2021/03/01 10:47:31;;;;;;;4.07;2.60;;;14.70;36.40;;;;;;5056686;28;20033;-74
2021/03/01 10:50:03;;;;;;;5.18;2.30;;;14.80;35.90;;;;;;5056151;28;20470;-75
2021/03/01 10:52:29;;;;;;;5.87;2.50;;;15.00;35.10;;;;;;5054847;28;20029;-75
2021/03/01 10:54:56;;;;;;;6.43;2.47;;;15.10;35.20;;;;;;5055857;28;20125;-75
2021/03/01 10:57:26;;;;;;;3.30;2.10;;;15.20;35.10;;;;;;5055914;28;20021;-75
2021/03/01 10:59:54;;;;;;;9.65;2.47;;;15.30;31.40;;;;;;5054575;28;20056;-75
2021/03/01 11:02:21;;;;;;;3.90;2.10;;;15.30;32.70;;;;;;5055994;28;20033;-75
2021/03/01 11:04:47;;;;;;;2.55;1.77;;;15.40;34.70;;;;;;5056109;28;20025;-75
2021/03/01 11:07:14;;;;;;;3.88;2.25;;;15.50;33.20;;;;;;5056186;28;20432;-74
2021/03/01 11:09:40;;;;;;;3.15;1.90;;;15.60;34.70;;;;;;5055563;28;20025;-74
2021/03/01 11:12:06;;;;;;;4.90;2.03;;;15.70;33.80;;;;;;5055676;28;20159;-75
2021/03/01 11:14:32;;;;;;;3.60;2.03;;;15.80;31.50;;;;;;5055729;28;20029;-75
2021/03/01 11:16:58;;;;;;;3.20;1.75;;;15.90;31.50;;;;;;5055722;28;20114;-75
2021/03/01 11:19:25;;;;;;;5.03;1.88;;;15.90;33.20;;;;;;5055703;28;20488;-76
2021/03/01 11:21:51;;;;;;;3.28;1.90;;;16.00;32.30;;;;;;5055337;28;20108;-75
2021/03/01 11:24:22;;;;;;;4.68;1.67;;;16.10;32.00;;;;;;5055670;28;20029;-74
2021/03/01 11:26:52;;;;;;;3.10;1.65;;;16.20;31.70;;;;;;5055704;28;20032;-75
2021/03/01 11:29:19;;;;;;;3.13;1.73;;;16.20;31.60;;;;;;5055228;28;20449;-76
2021/03/01 11:31:45;;;;;;;50.53;4.43;;;16.30;31.90;;;;;;5055373;28;20044;-75
2021/03/01 11:34:11;;;;;;;5.45;2.00;;;16.40;31.10;;;;;;5055603;28;20067;-75
2021/03/01 11:36:37;;;;;;;7.13;1.80;;;16.50;32.00;;;;;;5055421;28;20033;-74
2021/03/01 11:39:05;;;;;;;3.05;1.70;;;16.60;32.70;;;;;;5055495;28;20462;-75
2021/03/01 11:41:31;;;;;;;3.55;1.77;;;16.70;31.30;;;;;;5055291;28;20048;-75
2021/03/01 11:43:56;;;;;;;3.33;1.85;;;16.70;30.90;;;;;;5055088;28;20037;-75
2021/03/01 11:46:22;;;;;;;5.22;1.60;;;16.80;30.40;;;;;;5055242;28;20107;-75
2021/03/01 11:48:48;;;;;;;4.07;1.77;;;16.90;31.00;;;;;;5055279;28;20033;-75
2021/03/01 11:51:15;;;;;;;4.53;1.77;;;16.90;30.60;;;;;;5055734;28;20454;-75
2021/03/01 11:53:41;;;;;;;3.92;1.70;;;16.90;29.90;;;;;;5055007;28;20129;-75
2021/03/01 11:56:07;;;;;;;2.67;1.90;;;17.00;30.50;;;;;;5054791;28;20029;-75
2021/03/01 11:58:34;;;;;;;2.65;1.70;;;17.00;28.80;;;;;;5054864;28;20032;-75
2021/03/01 12:01:00;;;;;;;7.18;1.90;;;17.00;29.70;;;;;;5054915;28;20021;-75
2021/03/01 12:03:26;;;;;;;3.03;1.58;;;17.00;29.80;;;;;;5055056;28;20032;-75
2021/03/01 12:05:51;;;;;;;2.53;1.70;;;17.00;29.90;;;;;;5054895;28;20587;-75
2021/03/01 12:08:17;;;;;;;8.20;1.77;;;17.10;28.80;;;;;;5054669;28;20051;-75
2021/03/01 12:10:43;;;;;;;2.33;1.50;;;17.20;29.70;;;;;;5054973;28;20036;-75
2021/03/01 12:13:08;;;;;;;3.13;1.83;;;17.10;29.70;;;;;;5055262;28;20040;-75
2021/03/01 12:15:34;;;;;;;2.83;1.60;;;17.20;30.00;;;;;;5054526;28;20366;-75
2021/03/01 12:18:00;;;;;;;5.82;1.77;;;17.30;29.80;;;;;;5054511;28;20029;-75
2021/03/01 12:20:26;;;;;;;5.35;1.70;;;17.40;30.00;;;;;;5054542;28;20036;-75
2021/03/01 12:22:52;;;;;;;1.92;1.45;;;17.40;29.50;;;;;;5054481;28;20068;-75
2021/03/01 12:25:18;;;;;;;3.53;1.35;;;17.50;29.30;;;;;;5054311;28;20469;-75
2021/03/01 12:27:43;;;;;;;2.00;1.33;;;17.60;29.30;;;;;;5054167;28;20402;-75
2021/03/01 12:30:09;;;;;;;3.00;1.30;;;17.70;29.00;;;;;;5054749;28;20036;-75
2021/03/01 12:32:35;;;;;;;4.68;1.45;;;17.80;29.00;;;;;;5054457;28;20048;-75
2021/03/01 12:35:02;;;;;;;2.38;1.35;;;17.90;28.80;;;;;;5054279;28;20385;-75
2021/03/01 12:37:28;;;;;;;7.15;1.40;;;17.90;28.90;;;;;;5054143;28;20029;-75
2021/03/01 12:39:54;;;;;;;3.78;1.30;;;18.00;27.50;;;;;;5053741;28;20048;-75
2021/03/01 12:42:20;;;;;;;1.88;1.10;;;18.00;28.10;;;;;;5053530;28;20021;-75
2021/03/01 12:44:45;;;;;;;2.30;1.25;;;18.00;28.00;;;;;;5054054;28;20017;-75
2021/03/01 12:47:11;;;;;;;4.38;1.20;;;18.10;28.10;;;;;;5053718;28;20032;-75
2021/03/01 12:49:37;;;;;;;2.08;1.20;;;18.10;27.80;;;;;;5053889;28;20543;-75
2021/03/01 12:52:03;;;;;;;2.40;1.48;;;18.10;27.00;;;;;;5053862;28;20033;-75
2021/03/01 12:54:28;;;;;;;2.75;1.50;;;18.10;27.00;;;;;;5053743;28;20049;-75